Torreon, New Mexico
Current Conditions -  °F | °C
As of 9:55 AM on Friday 28 Nov 2014 (Local Time) from K0E0 Reporting Station
Clear Clear  
Wind Chill: 42°   Ceiling: Unl
Heat Index: 42°   Visibility: 10mi
Dew Point: 24°   Wind: 0mph
Humidity: 48%   Direction: NA
Pressure: 30.29"   Gusts: NA
Location:  34.72°N, 106.3°W
Report Text: K0E0 281655Z AUTO 00000KT 10SM CLR 06/M04 A3029 RMK AO2 T00581045
Loading
Personal Weather Stations






























Interactive Weather Map New forecast layout! Learn more

10-Day Weather Forecast

Advertisements
Track Severe Weather on mobile